Terminal Aerodrome Forecast
Issued by NWS Bismarck, ND

Home | Current Version | Previous Version | Graphics & Text | Print | Product List | Glossary On
Versions: 1 2 3 4 5 6 7 8 9 10 11 12 13 14 15 16 17 18 19 20 21 22
609
FTUS43 KBIS 222325
TAFBIS
TAF
KBIS 222325Z 2300/2324 01007KT P6SM OVC015
     FM230300 36005KT 6SM BR OVC010
     FM231200 05006KT 1SM BR OVC008
     FM231600 06008KT 3SM BR OVC015
     FM231800 05010KT P6SM BKN020=

USA.gov is the U.S. government's official web portal to all federal, state and local government web resources and services.